createdAt,value
2023-03-19T00:02:22.468Z,10.24
2023-03-19T00:04:54.902Z,10.14
2023-03-19T00:07:28.608Z,10.16
2023-03-19T00:10:00.840Z,10.32
2023-03-19T00:12:31.552Z,10.21
2023-03-19T00:15:04.561Z,10.12
2023-03-19T00:17:40.792Z,10.06
2023-03-19T00:20:15.864Z,10.09
2023-03-19T00:22:51.189Z,10.05
2023-03-19T00:25:21.739Z,9.99
2023-03-19T00:27:57.421Z,9.98
2023-03-19T00:30:28.095Z,10.00
2023-03-19T00:32:58.662Z,9.92
2023-03-19T00:35:29.345Z,10.03
2023-03-19T00:37:59.996Z,9.94
2023-03-19T00:40:30.618Z,9.91
2023-03-19T00:43:02.750Z,9.90
2023-03-19T00:45:33.861Z,9.85
2023-03-19T00:48:04.899Z,9.74
2023-03-19T00:50:35.837Z,9.66
2023-03-19T00:53:08.105Z,9.63
2023-03-19T00:55:38.713Z,9.72
2023-03-19T00:58:10.196Z,9.60
2023-03-19T01:00:43.788Z,9.70
2023-03-19T01:03:15.511Z,9.53
2023-03-19T01:05:51.126Z,9.57
2023-03-19T01:08:23.291Z,9.50
2023-03-19T01:10:54.232Z,9.48
2023-03-19T01:13:24.863Z,9.50
2023-03-19T01:15:55.518Z,9.43
2023-03-19T01:18:26.395Z,9.35
2023-03-19T01:21:00.338Z,9.40
2023-03-19T01:23:34.015Z,9.40
2023-03-19T01:26:06.282Z,9.45
2023-03-19T01:28:39.650Z,9.38
2023-03-19T01:31:12.771Z,9.26
2023-03-19T01:33:45.099Z,9.22
2023-03-19T01:36:16.217Z,9.21
2023-03-19T01:38:46.874Z,9.30
2023-03-19T01:41:17.451Z,9.30
2023-03-19T01:43:49.288Z,9.24
2023-03-19T01:46:33.769Z,9.38
2023-03-19T01:49:07.389Z,9.23
2023-03-19T01:51:45.819Z,9.25
2023-03-19T01:54:21.557Z,9.19
2023-03-19T01:56:57.340Z,9.18
2023-03-19T01:59:36.681Z,9.15
2023-03-19T02:02:20.844Z,9.24
2023-03-19T02:04:56.959Z,9.31
2023-03-19T02:07:30.077Z,9.30
2023-03-19T02:10:04.167Z,9.27
2023-03-19T02:12:38.182Z,9.22
2023-03-19T02:15:10.237Z,9.23
2023-03-19T02:17:48.675Z,9.08
2023-03-19T02:20:22.268Z,9.02
2023-03-19T02:23:22.781Z,8.98
2023-03-19T02:25:59.919Z,9.06
2023-03-19T02:28:36.710Z,9.04
2023-03-19T02:31:10.304Z,8.98
2023-03-19T02:33:41.894Z,9.00
2023-03-19T02:36:18.309Z,9.16
2023-03-19T02:38:50.902Z,9.03
2023-03-19T02:41:30.101Z,9.07
2023-03-19T02:44:03.494Z,9.15
2023-03-19T02:46:34.414Z,9.06
2023-03-19T02:49:06.639Z,9.16
2023-03-19T02:51:39.500Z,9.08
2023-03-19T02:54:16.270Z,9.23
2023-03-19T02:56:48.699Z,9.21
2023-03-19T02:59:21.461Z,9.24
2023-03-19T03:01:56.094Z,9.16
2023-03-19T03:04:29.753Z,9.15
2023-03-19T03:07:03.528Z,9.08
2023-03-19T03:09:34.127Z,9.10
2023-03-19T03:12:05.326Z,9.26
2023-03-19T03:14:36.988Z,9.14
2023-03-19T03:17:10.114Z,9.11
2023-03-19T03:19:42.684Z,9.02
2023-03-19T03:22:13.169Z,9.07
2023-03-19T03:24:44.519Z,8.96
2023-03-19T03:27:17.123Z,9.02
2023-03-19T03:29:49.176Z,9.00
2023-03-19T03:32:23.222Z,9.10
2023-03-19T03:34:55.855Z,9.23
2023-03-19T03:37:26.671Z,9.30
2023-03-19T03:39:57.951Z,9.40
2023-03-19T03:42:33.188Z,9.42
2023-03-19T03:45:04.968Z,9.42
2023-03-19T03:47:39.142Z,9.43
2023-03-19T03:50:14.962Z,9.36
2023-03-19T03:52:45.510Z,9.31
2023-03-19T03:55:18.646Z,9.25
2023-03-19T03:57:52.061Z,9.23
2023-03-19T04:00:26.932Z,9.24
2023-03-19T04:02:59.789Z,9.26
2023-03-19T04:05:32.822Z,9.21
2023-03-19T04:08:04.434Z,9.18
2023-03-19T04:10:38.191Z,9.28
2023-03-19T04:13:11.170Z,9.34
2023-03-19T04:15:45.692Z,9.33
2023-03-19T04:18:19.070Z,9.30
2023-03-19T04:20:52.691Z,9.33
2023-03-19T04:23:26.681Z,9.18
2023-03-19T04:26:03.114Z,9.22
2023-03-19T04:28:36.420Z,9.28
2023-03-19T04:31:12.364Z,9.30
2023-03-19T04:33:44.929Z,9.21
2023-03-19T04:36:19.503Z,9.24
2023-03-19T04:38:53.454Z,9.22
2023-03-19T04:41:27.417Z,9.17
2023-03-19T04:43:58.268Z,9.26
2023-03-19T04:46:32.692Z,9.28
2023-03-19T04:49:04.549Z,9.60
2023-03-19T04:51:39.884Z,9.34
2023-03-19T04:54:11.574Z,9.72
2023-03-19T04:56:43.525Z,9.48
2023-03-19T04:59:16.534Z,9.62
2023-03-19T05:01:47.980Z,9.46
2023-03-19T05:04:21.382Z,9.45
2023-03-19T05:06:54.695Z,9.53
2023-03-19T05:09:31.764Z,9.52
2023-03-19T05:12:06.618Z,9.44
2023-03-19T05:14:37.216Z,9.38
2023-03-19T05:17:10.831Z,9.24
2023-03-19T05:19:45.959Z,9.08
2023-03-19T05:22:18.009Z,9.04
2023-03-19T05:24:51.884Z,8.86
2023-03-19T05:27:26.814Z,8.82
2023-03-19T05:29:57.730Z,8.69
2023-03-19T05:32:30.598Z,8.76
2023-03-19T05:35:01.241Z,8.86
2023-03-19T05:37:35.306Z,8.74
2023-03-19T05:40:09.069Z,8.82
2023-03-19T05:42:39.726Z,8.72
2023-03-19T05:45:12.453Z,8.44
2023-03-19T05:47:44.058Z,8.46
2023-03-19T05:50:18.136Z,8.45
2023-03-19T05:52:48.621Z,8.41
2023-03-19T05:55:20.750Z,8.40
2023-03-19T05:57:55.041Z,8.38
2023-03-19T06:00:25.618Z,8.47
2023-03-19T06:02:57.628Z,8.58
2023-03-19T06:05:29.723Z,8.64
2023-03-19T06:08:01.421Z,8.65
2023-03-19T06:10:33.602Z,8.69
2023-03-19T06:13:06.060Z,8.78
2023-03-19T06:15:36.740Z,8.82
2023-03-19T06:18:08.264Z,9.01
2023-03-19T06:20:39.027Z,9.08
2023-03-19T06:23:10.861Z,9.20
2023-03-19T06:25:41.699Z,9.20
2023-03-19T06:28:12.610Z,9.26
2023-03-19T06:30:44.506Z,9.40
2023-03-19T06:33:16.542Z,9.36
2023-03-19T06:35:47.767Z,9.65
2023-03-19T06:38:18.195Z,9.86
2023-03-19T06:40:50.258Z,9.83
2023-03-19T06:43:21.862Z,10.02
2023-03-19T06:45:52.326Z,10.30
2023-03-19T06:48:23.534Z,10.64
2023-03-19T06:50:56.194Z,10.68
2023-03-19T06:53:27.077Z,10.59
2023-03-19T06:55:58.781Z,10.50
2023-03-19T06:58:32.714Z,10.32
2023-03-19T07:01:04.053Z,10.14
2023-03-19T07:03:34.664Z,10.02
2023-03-19T07:06:05.594Z,10.08
2023-03-19T07:08:36.332Z,9.84
2023-03-19T07:11:08.398Z,9.48
2023-03-19T07:13:39.366Z,9.21
2023-03-19T07:16:10.361Z,9.20
2023-03-19T07:18:41.046Z,9.34
2023-03-19T07:21:12.609Z,9.43
2023-03-19T07:23:43.368Z,9.16
2023-03-19T07:26:14.179Z,9.16
2023-03-19T07:28:45.658Z,8.89
2023-03-19T07:31:17.177Z,8.94
2023-03-19T07:33:49.339Z,8.71
2023-03-19T07:36:23.240Z,8.32
2023-03-19T07:38:54.125Z,8.27
2023-03-19T07:41:25.077Z,8.20
2023-03-19T07:43:57.443Z,8.17
2023-03-19T07:46:28.472Z,8.17
2023-03-19T07:49:00.130Z,8.28
2023-03-19T07:51:31.187Z,8.19
2023-03-19T07:54:04.741Z,8.19
2023-03-19T07:56:35.309Z,8.31
2023-03-19T07:59:08.831Z,8.40
2023-03-19T08:01:39.485Z,8.51
2023-03-19T08:04:09.909Z,8.60
2023-03-19T08:06:40.777Z,8.40
2023-03-19T08:09:12.415Z,8.45
2023-03-19T08:11:43.736Z,8.49
2023-03-19T08:14:14.240Z,8.55
2023-03-19T08:16:46.472Z,8.66
2023-03-19T08:19:19.421Z,8.82
2023-03-19T08:21:52.958Z,8.94
2023-03-19T08:24:24.813Z,9.12
2023-03-19T08:26:55.318Z,9.03
2023-03-19T08:29:27.716Z,8.98
2023-03-19T08:32:00.291Z,9.06
2023-03-19T08:34:33.851Z,9.04
2023-03-19T08:37:06.101Z,9.07
2023-03-19T08:39:38.681Z,8.98
2023-03-19T08:42:09.955Z,8.94
2023-03-19T08:44:41.314Z,8.97
2023-03-19T08:47:12.180Z,8.80
2023-03-19T08:49:44.554Z,8.80
2023-03-19T08:52:16.325Z,8.85
2023-03-19T08:54:48.577Z,8.82
2023-03-19T08:57:20.585Z,8.86
2023-03-19T08:59:54.351Z,8.75
2023-03-19T09:02:27.999Z,8.82
2023-03-19T09:04:59.373Z,8.75
2023-03-19T09:07:34.531Z,8.68
2023-03-19T09:10:09.422Z,8.80
2023-03-19T09:12:40.258Z,8.88
2023-03-19T09:15:11.755Z,8.90
2023-03-19T09:17:43.613Z,9.02
2023-03-19T09:20:15.898Z,9.10
2023-03-19T09:22:47.849Z,9.11
2023-03-19T09:25:23.264Z,9.15
2023-03-19T09:27:54.560Z,9.22
2023-03-19T09:30:25.341Z,9.14
2023-03-19T09:33:06.875Z,9.25
2023-03-19T09:35:38.668Z,9.34
2023-03-19T09:38:12.799Z,9.53
2023-03-19T09:40:46.547Z,9.51
2023-03-19T09:43:47.093Z,9.62
2023-03-19T09:46:25.965Z,10.10
2023-03-19T09:49:28.287Z,10.22
2023-03-19T09:52:20.742Z,10.50
2023-03-19T09:54:53.821Z,10.82
2023-03-19T09:57:25.683Z,10.76
2023-03-19T09:59:56.651Z,11.10
2023-03-19T10:02:44.013Z,10.99
2023-03-19T10:05:23.428Z,11.13
2023-03-19T10:07:57.804Z,11.29
2023-03-19T10:10:39.357Z,11.38
2023-03-19T10:13:42.021Z,10.98
2023-03-19T10:16:17.378Z,10.86
2023-03-19T10:18:54.889Z,10.84
2023-03-19T10:21:35.570Z,11.01
2023-03-19T10:24:26.133Z,11.10
2023-03-19T10:27:03.449Z,11.14
2023-03-19T10:29:35.748Z,11.24
2023-03-19T10:32:23.116Z,11.42
2023-03-19T10:35:01.374Z,11.66
2023-03-19T10:37:35.241Z,11.76
2023-03-19T10:40:11.667Z,11.88
2023-03-19T10:43:13.280Z,12.24
2023-03-19T10:45:48.008Z,12.50
2023-03-19T10:48:26.950Z,12.38
2023-03-19T10:51:07.336Z,12.47
2023-03-19T10:53:43.132Z,12.87
2023-03-19T10:56:29.791Z,13.16
2023-03-19T10:59:11.718Z,12.96
2023-03-19T11:01:45.402Z,12.88
2023-03-19T11:04:25.881Z,12.58
2023-03-19T11:07:07.949Z,12.72
2023-03-19T11:09:45.425Z,12.94
2023-03-19T11:12:28.256Z,12.80
2023-03-19T11:15:03.978Z,12.86
2023-03-19T11:17:44.009Z,12.66
2023-03-19T11:20:33.509Z,12.65
2023-03-19T11:23:13.410Z,12.86
2023-03-19T11:25:57.533Z,12.80
2023-03-19T11:28:31.111Z,13.06
2023-03-19T11:31:34.094Z,13.00
2023-03-19T11:34:12.595Z,12.73
2023-03-19T11:37:08.989Z,12.87
2023-03-19T11:39:50.656Z,12.93
2023-03-19T11:42:45.187Z,13.22
2023-03-19T11:45:18.799Z,13.52
2023-03-19T11:48:15.632Z,13.70
2023-03-19T11:50:59.704Z,13.61
2023-03-19T11:53:57.483Z,13.51
2023-03-19T11:56:44.304Z,13.12
2023-03-19T11:59:42.186Z,12.96
2023-03-19T12:02:47.784Z,12.86
2023-03-19T12:05:38.874Z,12.84
2023-03-19T12:08:17.680Z,13.24
2023-03-19T12:11:28.640Z,13.20
2023-03-19T12:14:33.086Z,13.30
2023-03-19T12:17:36.196Z,13.35
2023-03-19T12:20:14.011Z,13.22
2023-03-19T12:22:52.221Z,13.34
2023-03-19T12:25:31.513Z,13.81
2023-03-19T12:28:11.336Z,14.24
2023-03-19T12:30:54.061Z,14.34
2023-03-19T12:33:54.412Z,14.66
2023-03-19T12:36:32.379Z,14.84
2023-03-19T12:39:21.170Z,15.28
2023-03-19T12:41:56.332Z,15.24
2023-03-19T12:44:33.630Z,15.46
2023-03-19T12:47:26.876Z,15.78
2023-03-19T12:50:09.634Z,15.93
2023-03-19T12:52:47.294Z,16.10
2023-03-19T12:55:38.813Z,15.88
2023-03-19T12:58:14.435Z,15.68
2023-03-19T13:00:58.726Z,15.46
2023-03-19T13:06:52.318Z,15.06
2023-03-19T13:09:45.823Z,15.10
2023-03-19T13:12:24.617Z,15.02
2023-03-19T13:15:14.191Z,15.33
2023-03-19T13:18:14.435Z,15.10
2023-03-19T13:21:00.113Z,15.08
2023-03-19T13:23:37.463Z,15.18
2023-03-19T13:26:13.836Z,15.51
2023-03-19T13:29:04.287Z,15.77
2023-03-19T13:31:39.162Z,15.53
2023-03-19T13:34:22.366Z,16.00
2023-03-19T13:37:14.363Z,15.92
2023-03-19T13:39:48.493Z,15.90
2023-03-19T13:42:41.837Z,15.96
2023-03-19T13:45:40.806Z,16.20
2023-03-19T13:48:33.935Z,16.33
2023-03-19T13:51:24.353Z,16.40
2023-03-19T13:54:12.883Z,16.34
2023-03-19T13:57:06.068Z,16.12
2023-03-19T13:59:39.568Z,16.02
2023-03-19T14:02:31.588Z,15.97
2023-03-19T14:05:12.167Z,15.82
2023-03-19T14:07:47.325Z,15.97
2023-03-19T14:10:34.840Z,15.69
2023-03-19T14:13:12.979Z,16.16
2023-03-19T14:15:53.455Z,15.95
2023-03-19T14:18:26.994Z,16.01
2023-03-19T14:21:07.139Z,16.10
2023-03-19T14:23:43.015Z,16.04
2023-03-19T14:26:17.129Z,15.86
2023-03-19T14:29:11.505Z,15.90
2023-03-19T14:31:53.866Z,16.26
2023-03-19T14:34:47.939Z,16.78
2023-03-19T14:37:21.574Z,17.31
2023-03-19T14:40:15.063Z,17.32
2023-03-19T14:43:08.060Z,17.44
2023-03-19T14:46:01.197Z,17.56
2023-03-19T14:49:00.330Z,16.96
2023-03-19T14:52:01.045Z,17.12
2023-03-19T14:54:40.178Z,17.28
2023-03-19T14:57:18.872Z,17.00
2023-03-19T14:59:51.173Z,16.81
2023-03-19T15:02:35.202Z,16.56
2023-03-19T15:05:11.314Z,16.34
2023-03-19T15:07:46.625Z,16.15
2023-03-19T15:10:24.741Z,16.28
2023-03-19T15:13:04.591Z,16.18
2023-03-19T15:15:56.592Z,16.27
2023-03-19T15:18:33.074Z,16.21
2023-03-19T15:21:05.738Z,15.88
2023-03-19T15:23:40.105Z,15.82
2023-03-19T15:26:21.207Z,15.85
2023-03-19T15:28:56.215Z,15.83
2023-03-19T15:31:54.007Z,16.06
2023-03-19T15:34:26.187Z,16.14
2023-03-19T15:37:06.440Z,16.31
2023-03-19T15:39:41.405Z,16.47
2023-03-19T15:42:13.129Z,16.32
2023-03-19T15:44:58.719Z,16.70
2023-03-19T15:47:34.346Z,16.80
2023-03-19T15:50:12.449Z,16.97
2023-03-19T15:52:46.236Z,16.96
2023-03-19T15:55:29.149Z,16.56
2023-03-19T15:58:19.584Z,16.44
2023-03-19T16:00:56.497Z,16.69
2023-03-19T16:03:41.548Z,16.94
2023-03-19T16:06:18.638Z,16.92
2023-03-19T16:08:55.434Z,16.60
2023-03-19T16:11:33.952Z,16.57
2023-03-19T16:14:13.614Z,16.33
2023-03-19T16:16:49.901Z,16.20
2023-03-19T16:19:37.446Z,16.00
2023-03-19T16:22:28.804Z,16.00
2023-03-19T16:25:02.281Z,15.99
2023-03-19T16:27:44.378Z,16.20
2023-03-19T16:30:28.417Z,16.00
2023-03-19T16:33:06.364Z,15.84
2023-03-19T16:35:47.498Z,15.75
2023-03-19T16:38:29.105Z,15.61
2023-03-19T16:41:20.965Z,15.56
2023-03-19T16:43:55.643Z,15.42
2023-03-19T16:46:32.950Z,15.29
2023-03-19T16:49:05.081Z,15.32
2023-03-19T16:51:37.658Z,15.17
2023-03-19T16:54:24.905Z,15.20
2023-03-19T16:56:56.899Z,15.15
2023-03-19T16:59:32.109Z,15.00
2023-03-19T17:02:07.648Z,15.03
2023-03-19T17:04:38.369Z,14.85
2023-03-19T17:07:10.563Z,14.70
2023-03-19T17:09:41.612Z,14.56
2023-03-19T17:12:15.513Z,14.60
2023-03-19T17:14:47.197Z,14.48
2023-03-19T17:17:20.536Z,14.79
2023-03-19T17:19:52.186Z,14.57
2023-03-19T17:22:24.529Z,14.48
2023-03-19T17:24:56.728Z,14.36
2023-03-19T17:27:28.548Z,14.31
2023-03-19T17:29:59.176Z,14.19
2023-03-19T17:32:31.877Z,14.07
2023-03-19T17:35:06.932Z,13.94
2023-03-19T17:37:41.149Z,13.91
2023-03-19T17:40:20.467Z,13.81
2023-03-19T17:42:53.163Z,13.68
2023-03-19T17:45:29.833Z,13.55
2023-03-19T17:48:04.369Z,13.56
2023-03-19T17:50:36.213Z,13.47
2023-03-19T17:53:10.466Z,13.28
2023-03-19T17:55:42.008Z,13.27
2023-03-19T17:58:24.431Z,13.31
2023-03-19T18:00:56.611Z,13.27
2023-03-19T18:03:34.834Z,13.35
2023-03-19T18:06:06.908Z,13.30
2023-03-19T18:08:39.501Z,13.33
2023-03-19T18:11:11.706Z,13.37
2023-03-19T18:13:43.556Z,13.35
2023-03-19T18:16:32.268Z,13.40
2023-03-19T18:19:08.139Z,13.45
2023-03-19T18:21:39.060Z,13.55
2023-03-19T18:24:11.275Z,13.78
2023-03-19T18:26:43.884Z,13.84
2023-03-19T18:29:14.952Z,13.76
2023-03-19T18:31:51.238Z,13.84
2023-03-19T18:34:22.918Z,13.90
2023-03-19T18:36:53.371Z,14.06
2023-03-19T18:39:23.973Z,13.86
2023-03-19T18:41:56.058Z,13.76
2023-03-19T18:44:28.675Z,13.86
2023-03-19T18:47:00.492Z,13.59
2023-03-19T18:49:31.338Z,13.62
2023-03-19T18:52:03.923Z,13.56
2023-03-19T18:54:34.760Z,13.78
2023-03-19T18:57:08.839Z,13.60
2023-03-19T18:59:41.111Z,13.52
2023-03-19T19:02:31.195Z,13.50
2023-03-19T19:05:03.232Z,13.43
2023-03-19T19:07:33.902Z,13.42
2023-03-19T19:10:05.416Z,13.30
2023-03-19T19:12:39.676Z,13.28
2023-03-19T19:15:18.860Z,13.24
2023-03-19T19:17:49.813Z,13.28
2023-03-19T19:20:23.347Z,13.34
2023-03-19T19:22:56.199Z,13.27
2023-03-19T19:25:29.421Z,13.31
2023-03-19T19:28:07.495Z,13.30
2023-03-19T19:30:39.725Z,13.30
2023-03-19T19:33:21.850Z,13.41
2023-03-19T19:35:53.714Z,13.38
2023-03-19T19:38:24.312Z,13.30
2023-03-19T19:40:58.387Z,13.16
2023-03-19T19:43:32.768Z,13.22
2023-03-19T19:46:03.514Z,13.19
2023-03-19T19:48:34.186Z,13.38
2023-03-19T19:51:04.882Z,13.28
2023-03-19T19:53:36.492Z,13.28
2023-03-19T19:56:18.426Z,13.37
2023-03-19T19:58:53.121Z,13.31
2023-03-19T20:01:26.393Z,13.35
2023-03-19T20:04:07.870Z,13.42
2023-03-19T20:06:38.516Z,13.30
2023-03-19T20:09:10.812Z,13.50
2023-03-19T20:11:44.382Z,13.28
2023-03-19T20:14:15.353Z,13.32
2023-03-19T20:16:47.257Z,13.35
2023-03-19T20:19:20.768Z,13.32
2023-03-19T20:21:51.781Z,13.38
2023-03-19T20:24:22.391Z,13.49
2023-03-19T20:26:54.277Z,13.15
2023-03-19T20:29:24.868Z,13.36
2023-03-19T20:31:58.310Z,13.30
2023-03-19T20:34:39.126Z,13.26
2023-03-19T20:37:03.350Z,13.22
2023-03-19T20:39:37.124Z,13.15
2023-03-19T20:42:13.715Z,13.11
2023-03-19T20:44:45.655Z,13.00
2023-03-19T20:47:21.591Z,12.98
2023-03-19T20:49:53.456Z,13.13
2023-03-19T20:52:26.128Z,13.04
2023-03-19T20:54:58.455Z,13.04
2023-03-19T20:57:30.917Z,12.95
2023-03-19T21:00:05.997Z,12.96
2023-03-19T21:02:38.321Z,13.00
2023-03-19T21:05:13.328Z,12.82
2023-03-19T21:07:48.744Z,12.76
2023-03-19T21:10:26.472Z,12.84
2023-03-19T21:12:58.303Z,12.86
2023-03-19T21:15:31.903Z,12.75
2023-03-19T21:18:05.406Z,12.87
2023-03-19T21:20:44.569Z,12.79
2023-03-19T21:23:37.822Z,12.91
2023-03-19T21:26:22.156Z,13.08
2023-03-19T21:29:04.140Z,12.92
2023-03-19T21:31:34.849Z,12.88
2023-03-19T21:34:07.178Z,12.79
2023-03-19T21:36:42.085Z,12.73
2023-03-19T21:39:17.139Z,12.62
2023-03-19T21:41:48.401Z,12.73
2023-03-19T21:44:26.507Z,12.70
2023-03-19T21:46:57.445Z,12.82
2023-03-19T21:49:30.757Z,12.68
2023-03-19T21:52:04.888Z,12.81
2023-03-19T21:54:35.567Z,12.78
2023-03-19T21:57:06.753Z,12.79
2023-03-19T21:59:39.164Z,12.78
2023-03-19T22:02:29.547Z,12.76
2023-03-19T22:05:00.180Z,12.71
2023-03-19T22:07:30.665Z,12.54
2023-03-19T22:10:05.381Z,12.37
2023-03-19T22:12:39.379Z,12.35
2023-03-19T22:15:25.070Z,12.25
2023-03-19T22:17:57.349Z,12.19
2023-03-19T22:20:30.911Z,12.14
2023-03-19T22:23:06.685Z,12.07
2023-03-19T22:25:42.299Z,12.08
2023-03-19T22:28:34.842Z,12.13
2023-03-19T22:31:07.691Z,12.02
2023-03-19T22:33:43.727Z,12.05
2023-03-19T22:36:16.570Z,12.14
2023-03-19T22:38:52.883Z,12.41
2023-03-19T22:41:38.354Z,12.36
2023-03-19T22:44:18.218Z,12.20
2023-03-19T22:46:53.072Z,12.26
2023-03-19T22:49:25.626Z,12.12
2023-03-19T22:51:58.767Z,12.06
2023-03-19T22:54:35.712Z,12.11
2023-03-19T22:57:06.267Z,11.95
2023-03-19T22:59:37.676Z,12.00
2023-03-19T23:02:21.557Z,12.24
2023-03-19T23:04:59.100Z,12.13
2023-03-19T23:07:39.690Z,11.94
2023-03-19T23:10:15.585Z,12.00
2023-03-19T23:12:47.878Z,12.10
2023-03-19T23:15:19.808Z,11.96
2023-03-19T23:17:54.132Z,11.94
2023-03-19T23:20:27.663Z,12.14
2023-03-19T23:22:58.414Z,11.95
2023-03-19T23:25:31.562Z,11.92
2023-03-19T23:28:06.060Z,11.98
2023-03-19T23:30:39.556Z,11.89
2023-03-19T23:33:13.334Z,11.86
2023-03-19T23:35:44.864Z,11.82
2023-03-19T23:38:25.714Z,11.76
2023-03-19T23:40:56.786Z,11.74
2023-03-19T23:43:37.042Z,11.76
2023-03-19T23:46:07.913Z,11.70
2023-03-19T23:48:42.525Z,11.64
2023-03-19T23:51:15.380Z,11.62
2023-03-19T23:53:47.825Z,11.54
2023-03-19T23:56:28.192Z,11.59
2023-03-19T23:59:09.105Z,11.52
